You are listening to:
EPKK Tower/App - Krakow, Poland

EPKK 082000Z 07005KT CAVOK 22/16 Q1019

If stream doesn't start automatically press the play button
If stream stops then reload player then press play